sensor_id;sensor_type;location;lat;lon;timestamp;pressure;altitude;pressure_sealevel;temperature;humidity
49529;BME280;35423;37.320;-121.762;2022-09-29T00:00:12;99975.98;;;46.50;4.84
49529;BME280;35423;37.320;-121.762;2022-09-29T00:02:40;99976.85;;;45.66;5.18
49529;BME280;35423;37.320;-121.762;2022-09-29T00:05:13;99981.85;;;46.24;5.45
49529;BME280;35423;37.320;-121.762;2022-09-29T00:07:38;99984.04;;;45.61;5.75
49529;BME280;35423;37.320;-121.762;2022-09-29T00:10:05;99989.95;;;45.76;5.71
49529;BME280;35423;37.320;-121.762;2022-09-29T00:12:31;99992.99;;;44.78;5.66
49529;BME280;35423;37.320;-121.762;2022-09-29T00:14:57;99995.62;;;45.33;5.43
49529;BME280;35423;37.320;-121.762;2022-09-29T00:17:26;99999.17;;;45.23;5.44
49529;BME280;35423;37.320;-121.762;2022-09-29T00:20:04;100000.98;;;44.71;5.58
49529;BME280;35423;37.320;-121.762;2022-09-29T00:22:28;100004.57;;;43.84;5.93
49529;BME280;35423;37.320;-121.762;2022-09-29T00:24:55;100007.82;;;43.75;6.03
49529;BME280;35423;37.320;-121.762;2022-09-29T00:27:22;100007.41;;;43.20;6.30
49529;BME280;35423;37.320;-121.762;2022-09-29T00:29:51;100002.87;;;42.16;6.93
49529;BME280;35423;37.320;-121.762;2022-09-29T00:32:17;100003.04;;;41.99;7.37
49529;BME280;35423;37.320;-121.762;2022-09-29T00:34:45;100004.34;;;41.62;7.73
49529;BME280;35423;37.320;-121.762;2022-09-29T00:37:11;100005.26;;;40.87;8.14
49529;BME280;35423;37.320;-121.762;2022-09-29T00:39:36;100002.13;;;39.59;8.57
49529;BME280;35423;37.320;-121.762;2022-09-29T00:42:02;100003.73;;;39.57;9.04
49529;BME280;35423;37.320;-121.762;2022-09-29T00:46:56;100009.12;;;39.40;10.14
49529;BME280;35423;37.320;-121.762;2022-09-29T00:49:24;100012.01;;;39.74;11.07
49529;BME280;35423;37.320;-121.762;2022-09-29T00:51:47;100018.12;;;38.92;11.83
49529;BME280;35423;37.320;-121.762;2022-09-29T00:54:10;100022.25;;;39.04;11.87
49529;BME280;35423;37.320;-121.762;2022-09-29T00:56:40;100025.99;;;38.95;12.22
49529;BME280;35423;37.320;-121.762;2022-09-29T00:59:07;100032.68;;;38.08;11.97
49529;BME280;35423;37.320;-121.762;2022-09-29T01:01:31;100028.27;;;37.15;12.13
49529;BME280;35423;37.320;-121.762;2022-09-29T01:04:10;100031.03;;;37.59;12.53
49529;BME280;35423;37.320;-121.762;2022-09-29T01:06:37;100029.05;;;36.51;12.59
49529;BME280;35423;37.320;-121.762;2022-09-29T01:09:01;100029.04;;;36.63;12.92
49529;BME280;35423;37.320;-121.762;2022-09-29T01:11:29;100029.79;;;36.13;13.17
49529;BME280;35423;37.320;-121.762;2022-09-29T01:13:55;100032.47;;;36.67;13.37
49529;BME280;35423;37.320;-121.762;2022-09-29T01:16:21;100034.81;;;36.23;13.12
49529;BME280;35423;37.320;-121.762;2022-09-29T01:18:47;100038.83;;;35.96;13.14
49529;BME280;35423;37.320;-121.762;2022-09-29T01:21:20;100039.03;;;35.50;13.68
49529;BME280;35423;37.320;-121.762;2022-09-29T01:26:17;100047.60;;;35.03;15.57
49529;BME280;35423;37.320;-121.762;2022-09-29T01:28:45;100051.82;;;34.37;15.77
49529;BME280;35423;37.320;-121.762;2022-09-29T01:31:11;100055.09;;;34.67;16.12
49529;BME280;35423;37.320;-121.762;2022-09-29T01:33:32;100055.81;;;34.37;16.23
49529;BME280;35423;37.320;-121.762;2022-09-29T01:36:00;100062.86;;;34.04;16.59
49529;BME280;35423;37.320;-121.762;2022-09-29T01:38:32;100067.50;;;33.98;16.89
49529;BME280;35423;37.320;-121.762;2022-09-29T01:40:50;100071.00;;;33.51;17.14
49529;BME280;35423;37.320;-121.762;2022-09-29T01:43:20;100072.11;;;33.46;17.38
49529;BME280;35423;37.320;-121.762;2022-09-29T01:45:39;100075.76;;;33.26;17.76
49529;BME280;35423;37.320;-121.762;2022-09-29T01:48:09;100079.60;;;33.42;17.96
49529;BME280;35423;37.320;-121.762;2022-09-29T01:50:37;100084.17;;;32.33;18.36
49529;BME280;35423;37.320;-121.762;2022-09-29T01:53:06;100085.19;;;32.90;18.62
49529;BME280;35423;37.320;-121.762;2022-09-29T01:55:30;100088.11;;;32.95;18.87
49529;BME280;35423;37.320;-121.762;2022-09-29T01:57:55;100085.47;;;32.15;19.07
49529;BME280;35423;37.320;-121.762;2022-09-29T02:00:19;100085.44;;;32.61;19.39
49529;BME280;35423;37.320;-121.762;2022-09-29T02:02:48;100085.80;;;32.26;19.49
49529;BME280;35423;37.320;-121.762;2022-09-29T02:05:15;100092.53;;;32.64;19.71
49529;BME280;35423;37.320;-121.762;2022-09-29T02:07:41;100094.37;;;31.88;19.81
49529;BME280;35423;37.320;-121.762;2022-09-29T02:10:08;100098.47;;;32.19;20.16
49529;BME280;35423;37.320;-121.762;2022-09-29T02:12:31;100098.11;;;31.37;20.33
49529;BME280;35423;37.320;-121.762;2022-09-29T02:15:05;100092.95;;;32.37;20.49
49529;BME280;35423;37.320;-121.762;2022-09-29T02:17:35;100090.02;;;31.30;20.84
49529;BME280;35423;37.320;-121.762;2022-09-29T02:19:59;100096.29;;;31.90;20.92
49529;BME280;35423;37.320;-121.762;2022-09-29T02:22:27;100101.13;;;31.49;21.16
49529;BME280;35423;37.320;-121.762;2022-09-29T02:24:54;100099.27;;;31.39;21.36
49529;BME280;35423;37.320;-121.762;2022-09-29T02:27:18;100100.44;;;31.73;21.57
49529;BME280;35423;37.320;-121.762;2022-09-29T02:29:47;100098.05;;;31.30;21.69
49529;BME280;35423;37.320;-121.762;2022-09-29T02:32:14;100101.51;;;31.55;21.76
49529;BME280;35423;37.320;-121.762;2022-09-29T02:34:45;100101.61;;;30.85;21.94
49529;BME280;35423;37.320;-121.762;2022-09-29T02:39:42;100098.89;;;30.68;22.22
49529;BME280;35423;37.320;-121.762;2022-09-29T02:42:12;100101.59;;;30.97;22.34
49529;BME280;35423;37.320;-121.762;2022-09-29T02:44:42;100102.54;;;30.33;22.37
49529;BME280;35423;37.320;-121.762;2022-09-29T02:47:07;100105.88;;;30.79;22.61
49529;BME280;35423;37.320;-121.762;2022-09-29T02:49:31;100108.01;;;30.84;22.53
49529;BME280;35423;37.320;-121.762;2022-09-29T02:51:49;100106.51;;;30.45;22.75
49529;BME280;35423;37.320;-121.762;2022-09-29T02:54:30;100104.91;;;30.66;22.91
49529;BME280;35423;37.320;-121.762;2022-09-29T02:56:48;100107.78;;;30.56;22.90
49529;BME280;35423;37.320;-121.762;2022-09-29T02:59:23;100113.31;;;30.85;23.08
49529;BME280;35423;37.320;-121.762;2022-09-29T03:01:49;100112.06;;;29.99;23.18
49529;BME280;35423;37.320;-121.762;2022-09-29T03:04:12;100118.93;;;30.40;23.25
49529;BME280;35423;37.320;-121.762;2022-09-29T03:06:43;100118.79;;;30.11;23.34
49529;BME280;35423;37.320;-121.762;2022-09-29T03:09:08;100122.39;;;30.23;23.38
49529;BME280;35423;37.320;-121.762;2022-09-29T03:11:34;100127.46;;;29.45;23.51
49529;BME280;35423;37.320;-121.762;2022-09-29T03:14:01;100126.84;;;30.43;23.51
49529;BME280;35423;37.320;-121.762;2022-09-29T03:16:28;100126.50;;;29.83;23.60
49529;BME280;35423;37.320;-121.762;2022-09-29T03:18:55;100131.74;;;30.31;23.68
49529;BME280;35423;37.320;-121.762;2022-09-29T03:21:20;100136.67;;;29.95;23.93
49529;BME280;35423;37.320;-121.762;2022-09-29T03:23:45;100142.32;;;29.81;24.05
49529;BME280;35423;37.320;-121.762;2022-09-29T03:26:12;100145.05;;;30.03;24.11
49529;BME280;35423;37.320;-121.762;2022-09-29T03:28:44;100147.95;;;29.88;24.32
49529;BME280;35423;37.320;-121.762;2022-09-29T03:31:11;100147.48;;;29.93;24.49
49529;BME280;35423;37.320;-121.762;2022-09-29T03:33:36;100147.04;;;29.22;24.50
49529;BME280;35423;37.320;-121.762;2022-09-29T03:36:03;100149.65;;;29.81;24.58
49529;BME280;35423;37.320;-121.762;2022-09-29T03:38:28;100152.06;;;29.54;24.72
49529;BME280;35423;37.320;-121.762;2022-09-29T03:40:53;100153.73;;;29.77;24.75
49529;BME280;35423;37.320;-121.762;2022-09-29T03:43:19;100151.26;;;29.36;24.85
49529;BME280;35423;37.320;-121.762;2022-09-29T03:45:51;100151.34;;;29.36;25.08
49529;BME280;35423;37.320;-121.762;2022-09-29T03:48:11;100148.65;;;29.37;25.17
49529;BME280;35423;37.320;-121.762;2022-09-29T03:50:37;100148.69;;;29.14;25.05
49529;BME280;35423;37.320;-121.762;2022-09-29T03:53:03;100150.74;;;29.22;25.17
49529;BME280;35423;37.320;-121.762;2022-09-29T03:55:30;100152.88;;;28.92;25.07
49529;BME280;35423;37.320;-121.762;2022-09-29T03:57:58;100156.02;;;29.49;25.00
49529;BME280;35423;37.320;-121.762;2022-09-29T04:00:28;100154.97;;;28.39;25.18
49529;BME280;35423;37.320;-121.762;2022-09-29T04:02:54;100159.86;;;28.70;25.43
49529;BME280;35423;37.320;-121.762;2022-09-29T04:05:19;100162.96;;;28.83;25.55
49529;BME280;35423;37.320;-121.762;2022-09-29T04:07:44;100163.37;;;28.86;25.58
49529;BME280;35423;37.320;-121.762;2022-09-29T04:10:14;100171.24;;;28.70;25.71
49529;BME280;35423;37.320;-121.762;2022-09-29T04:12:39;100172.59;;;28.08;25.77
49529;BME280;35423;37.320;-121.762;2022-09-29T04:15:08;100174.32;;;28.32;25.83
49529;BME280;35423;37.320;-121.762;2022-09-29T04:17:35;100174.91;;;28.52;25.87
49529;BME280;35423;37.320;-121.762;2022-09-29T04:20:01;100177.85;;;28.66;25.91
49529;BME280;35423;37.320;-121.762;2022-09-29T04:22:26;100181.22;;;28.30;25.86
49529;BME280;35423;37.320;-121.762;2022-09-29T04:24:52;100183.48;;;28.42;25.89
49529;BME280;35423;37.320;-121.762;2022-09-29T04:27:18;100183.02;;;28.32;25.94
49529;BME280;35423;37.320;-121.762;2022-09-29T04:29:46;100179.40;;;28.33;25.92
49529;BME280;35423;37.320;-121.762;2022-09-29T04:32:11;100182.98;;;28.09;25.98
49529;BME280;35423;37.320;-121.762;2022-09-29T04:34:37;100185.99;;;28.47;25.89
49529;BME280;35423;37.320;-121.762;2022-09-29T04:37:04;100182.51;;;28.20;26.07
49529;BME280;35423;37.320;-121.762;2022-09-29T04:39:32;100181.58;;;27.63;26.15
49529;BME280;35423;37.320;-121.762;2022-09-29T04:41:58;100181.80;;;27.92;26.35
49529;BME280;35423;37.320;-121.762;2022-09-29T04:44:26;100179.01;;;27.77;26.55
49529;BME280;35423;37.320;-121.762;2022-09-29T04:46:51;100179.11;;;27.99;26.59
49529;BME280;35423;37.320;-121.762;2022-09-29T04:49:17;100183.18;;;27.80;26.79
49529;BME280;35423;37.320;-121.762;2022-09-29T04:51:43;100182.16;;;27.64;26.94
49529;BME280;35423;37.320;-121.762;2022-09-29T04:54:09;100181.02;;;27.80;27.00
49529;BME280;35423;37.320;-121.762;2022-09-29T04:56:34;100182.40;;;27.16;26.97
49529;BME280;35423;37.320;-121.762;2022-09-29T04:59:00;100184.21;;;27.61;27.01
49529;BME280;35423;37.320;-121.762;2022-09-29T05:01:29;100186.32;;;26.99;27.04
49529;BME280;35423;37.320;-121.762;2022-09-29T05:03:56;100188.93;;;27.73;27.09
49529;BME280;35423;37.320;-121.762;2022-09-29T05:06:28;100192.79;;;26.83;27.20
49529;BME280;35423;37.320;-121.762;2022-09-29T05:08:52;100192.38;;;27.39;27.20
49529;BME280;35423;37.320;-121.762;2022-09-29T05:11:22;100194.66;;;27.52;27.31
49529;BME280;35423;37.320;-121.762;2022-09-29T05:13:48;100194.10;;;27.39;27.38
49529;BME280;35423;37.320;-121.762;2022-09-29T05:16:12;100191.64;;;27.67;27.39
49529;BME280;35423;37.320;-121.762;2022-09-29T05:18:37;100196.13;;;26.51;27.51
49529;BME280;35423;37.320;-121.762;2022-09-29T05:21:07;100197.05;;;27.50;27.43
49529;BME280;35423;37.320;-121.762;2022-09-29T05:23:32;100196.91;;;26.30;27.60
49529;BME280;35423;37.320;-121.762;2022-09-29T05:26:01;100195.65;;;27.10;27.78
49529;BME280;35423;37.320;-121.762;2022-09-29T05:28:26;100197.85;;;26.83;27.88
49529;BME280;35423;37.320;-121.762;2022-09-29T05:30:51;100198.33;;;26.89;27.95
49529;BME280;35423;37.320;-121.762;2022-09-29T05:33:21;100196.63;;;26.80;28.10
49529;BME280;35423;37.320;-121.762;2022-09-29T05:35:45;100199.04;;;26.79;28.15
49529;BME280;35423;37.320;-121.762;2022-09-29T05:38:12;100198.45;;;26.71;28.21
49529;BME280;35423;37.320;-121.762;2022-09-29T05:40:40;100200.61;;;26.52;28.21
49529;BME280;35423;37.320;-121.762;2022-09-29T05:43:08;100196.99;;;26.70;28.31
49529;BME280;35423;37.320;-121.762;2022-09-29T05:45:35;100201.40;;;26.12;28.31
49529;BME280;35423;37.320;-121.762;2022-09-29T05:48:00;100201.22;;;26.60;28.36
49529;BME280;35423;37.320;-121.762;2022-09-29T05:50:26;100202.23;;;26.55;28.47
49529;BME280;35423;37.320;-121.762;2022-09-29T05:52:53;100201.69;;;26.36;28.58
49529;BME280;35423;37.320;-121.762;2022-09-29T05:55:19;100198.60;;;26.65;28.79
49529;BME280;35423;37.320;-121.762;2022-09-29T05:57:47;100202.39;;;26.31;28.98
49529;BME280;35423;37.320;-121.762;2022-09-29T06:00:11;100204.00;;;26.03;29.07
49529;BME280;35423;37.320;-121.762;2022-09-29T06:02:37;100203.02;;;25.98;28.97
49529;BME280;35423;37.320;-121.762;2022-09-29T06:05:07;100204.03;;;26.57;29.02
49529;BME280;35423;37.320;-121.762;2022-09-29T06:07:32;100205.07;;;25.42;29.12
49529;BME280;35423;37.320;-121.762;2022-09-29T06:09:59;100209.09;;;25.89;29.17
49529;BME280;35423;37.320;-121.762;2022-09-29T06:12:26;100209.29;;;26.36;29.24
49529;BME280;35423;37.320;-121.762;2022-09-29T06:14:51;100210.29;;;26.02;29.34
49529;BME280;35423;37.320;-121.762;2022-09-29T06:17:22;100212.19;;;25.88;29.50
49529;BME280;35423;37.320;-121.762;2022-09-29T06:19:48;100210.54;;;26.07;29.64
49529;BME280;35423;37.320;-121.762;2022-09-29T06:22:13;100207.68;;;25.44;29.70
49529;BME280;35423;37.320;-121.762;2022-09-29T06:24:40;100205.62;;;25.59;29.70
49529;BME280;35423;37.320;-121.762;2022-09-29T06:27:07;100206.02;;;25.53;30.04
49529;BME280;35423;37.320;-121.762;2022-09-29T06:29:39;100202.60;;;24.81;30.14
49529;BME280;35423;37.320;-121.762;2022-09-29T06:32:08;100197.77;;;25.26;30.31
49529;BME280;35423;37.320;-121.762;2022-09-29T06:34:33;100197.75;;;24.34;30.37
49529;BME280;35423;37.320;-121.762;2022-09-29T06:37:00;100197.72;;;24.75;30.33
49529;BME280;35423;37.320;-121.762;2022-09-29T06:39:28;100191.31;;;24.86;30.09
49529;BME280;35423;37.320;-121.762;2022-09-29T06:41:55;100186.16;;;24.97;30.11
49529;BME280;35423;37.320;-121.762;2022-09-29T06:44:22;100183.76;;;25.20;30.14
49529;BME280;35423;37.320;-121.762;2022-09-29T06:46:46;100182.99;;;24.67;30.16
49529;BME280;35423;37.320;-121.762;2022-09-29T06:49:12;100183.47;;;24.75;30.06
49529;BME280;35423;37.320;-121.762;2022-09-29T06:51:36;100179.52;;;24.79;30.03
49529;BME280;35423;37.320;-121.762;2022-09-29T06:54:02;100178.43;;;24.77;30.35
49529;BME280;35423;37.320;-121.762;2022-09-29T06:56:29;100174.99;;;24.54;30.57
49529;BME280;35423;37.320;-121.762;2022-09-29T06:58:56;100171.81;;;24.85;30.56
49529;BME280;35423;37.320;-121.762;2022-09-29T07:01:26;100169.88;;;24.64;30.56
49529;BME280;35423;37.320;-121.762;2022-09-29T07:03:52;100167.91;;;24.61;30.61
49529;BME280;35423;37.320;-121.762;2022-09-29T07:06:17;100162.50;;;24.58;30.83
49529;BME280;35423;37.320;-121.762;2022-09-29T07:08:45;100159.45;;;24.55;30.96
49529;BME280;35423;37.320;-121.762;2022-09-29T07:11:11;100155.06;;;24.76;30.92
49529;BME280;35423;37.320;-121.762;2022-09-29T07:13:39;100154.00;;;24.13;31.06
49529;BME280;35423;37.320;-121.762;2022-09-29T07:16:05;100151.85;;;24.53;31.18
49529;BME280;35423;37.320;-121.762;2022-09-29T07:18:31;100150.19;;;23.97;31.24
49529;BME280;35423;37.320;-121.762;2022-09-29T07:21:00;100149.57;;;24.44;31.47
49529;BME280;35423;37.320;-121.762;2022-09-29T07:23:27;100149.36;;;24.57;31.49
49529;BME280;35423;37.320;-121.762;2022-09-29T07:25:54;100148.32;;;24.61;31.51
49529;BME280;35423;37.320;-121.762;2022-09-29T07:28:19;100145.16;;;24.57;31.70
49529;BME280;35423;37.320;-121.762;2022-09-29T07:30:46;100142.27;;;24.23;31.72
49529;BME280;35423;37.320;-121.762;2022-09-29T07:33:12;100141.09;;;24.08;31.76
49529;BME280;35423;37.320;-121.762;2022-09-29T07:35:38;100142.40;;;23.39;32.03
49529;BME280;35423;37.320;-121.762;2022-09-29T07:38:04;100137.23;;;24.04;32.21
49529;BME280;35423;37.320;-121.762;2022-09-29T07:40:35;100135.40;;;23.17;32.40
49529;BME280;35423;37.320;-121.762;2022-09-29T07:43:01;100133.30;;;23.71;32.48
49529;BME280;35423;37.320;-121.762;2022-09-29T07:45:27;100134.21;;;23.72;32.47
49529;BME280;35423;37.320;-121.762;2022-09-29T07:47:52;100136.35;;;24.04;32.30
49529;BME280;35423;37.320;-121.762;2022-09-29T07:50:19;100138.86;;;23.75;32.35
49529;BME280;35423;37.320;-121.762;2022-09-29T07:52:50;100139.19;;;23.67;32.38
49529;BME280;35423;37.320;-121.762;2022-09-29T07:55:27;100139.41;;;23.85;32.41
49529;BME280;35423;37.320;-121.762;2022-09-29T07:57:52;100138.71;;;23.93;32.28
49529;BME280;35423;37.320;-121.762;2022-09-29T08:00:17;100137.18;;;24.06;32.33
49529;BME280;35423;37.320;-121.762;2022-09-29T08:02:43;100136.17;;;23.61;32.45
49529;BME280;35423;37.320;-121.762;2022-09-29T08:05:09;100135.84;;;24.00;32.50
49529;BME280;35423;37.320;-121.762;2022-09-29T08:07:36;100136.48;;;23.51;32.48
49529;BME280;35423;37.320;-121.762;2022-09-29T08:10:03;100132.31;;;23.68;32.49
49529;BME280;35423;37.320;-121.762;2022-09-29T08:12:28;100134.97;;;23.19;32.41
49529;BME280;35423;37.320;-121.762;2022-09-29T08:14:53;100135.34;;;23.53;32.52
49529;BME280;35423;37.320;-121.762;2022-09-29T08:17:18;100136.25;;;23.65;32.72
49529;BME280;35423;37.320;-121.762;2022-09-29T08:19:46;100137.24;;;23.64;32.97
49529;BME280;35423;37.320;-121.762;2022-09-29T08:22:12;100137.89;;;23.54;33.05
49529;BME280;35423;37.320;-121.762;2022-09-29T08:24:40;100136.29;;;23.09;32.91
49529;BME280;35423;37.320;-121.762;2022-09-29T08:27:05;100137.97;;;23.32;33.15
49529;BME280;35423;37.320;-121.762;2022-09-29T08:29:31;100141.94;;;22.96;33.05
49529;BME280;35423;37.320;-121.762;2022-09-29T08:31:58;100149.53;;;23.22;33.20
49529;BME280;35423;37.320;-121.762;2022-09-29T08:34:26;100151.24;;;22.92;33.26
49529;BME280;35423;37.320;-121.762;2022-09-29T08:36:51;100153.08;;;23.43;33.23
49529;BME280;35423;37.320;-121.762;2022-09-29T08:39:18;100154.16;;;23.40;33.18
49529;BME280;35423;37.320;-121.762;2022-09-29T08:41:52;100153.50;;;23.12;33.22
49529;BME280;35423;37.320;-121.762;2022-09-29T08:44:13;100152.95;;;23.33;33.26
49529;BME280;35423;37.320;-121.762;2022-09-29T08:46:41;100152.23;;;23.08;33.28
49529;BME280;35423;37.320;-121.762;2022-09-29T08:49:08;100151.03;;;23.14;33.44
49529;BME280;35423;37.320;-121.762;2022-09-29T08:51:34;100150.93;;;22.62;33.42
49529;BME280;35423;37.320;-121.762;2022-09-29T08:54:05;100154.61;;;22.88;33.43
49529;BME280;35423;37.320;-121.762;2022-09-29T08:56:27;100154.89;;;22.75;33.55
49529;BME280;35423;37.320;-121.762;2022-09-29T08:58:53;100157.58;;;22.90;33.69
49529;BME280;35423;37.320;-121.762;2022-09-29T09:01:28;100157.46;;;22.98;33.75
49529;BME280;35423;37.320;-121.762;2022-09-29T09:04:01;100158.25;;;23.00;33.75
49529;BME280;35423;37.320;-121.762;2022-09-29T09:06:23;100160.31;;;23.12;34.03
49529;BME280;35423;37.320;-121.762;2022-09-29T09:08:52;100162.14;;;22.85;34.13
49529;BME280;35423;37.320;-121.762;2022-09-29T09:11:14;100165.18;;;23.20;33.93
49529;BME280;35423;37.320;-121.762;2022-09-29T09:13:43;100164.31;;;22.31;34.12
49529;BME280;35423;37.320;-121.762;2022-09-29T09:16:07;100165.57;;;22.68;34.33
49529;BME280;35423;37.320;-121.762;2022-09-29T09:20:54;100164.17;;;22.72;34.63
49529;BME280;35423;37.320;-121.762;2022-09-29T09:23:21;100161.31;;;22.72;34.75
49529;BME280;35423;37.320;-121.762;2022-09-29T09:25:52;100160.61;;;22.23;34.72
49529;BME280;35423;37.320;-121.762;2022-09-29T09:28:17;100162.76;;;22.47;34.52
49529;BME280;35423;37.320;-121.762;2022-09-29T09:30:43;100164.06;;;22.28;34.31
49529;BME280;35423;37.320;-121.762;2022-09-29T09:33:14;100165.88;;;22.69;34.34
49529;BME280;35423;37.320;-121.762;2022-09-29T09:35:38;100168.28;;;22.11;34.40
49529;BME280;35423;37.320;-121.762;2022-09-29T09:38:11;100168.18;;;22.43;34.56
49529;BME280;35423;37.320;-121.762;2022-09-29T09:40:37;100170.71;;;21.93;34.52
49529;BME280;35423;37.320;-121.762;2022-09-29T09:43:02;100169.58;;;22.30;34.68
49529;BME280;35423;37.320;-121.762;2022-09-29T09:45:30;100172.13;;;22.17;34.65
49529;BME280;35423;37.320;-121.762;2022-09-29T09:47:57;100171.44;;;22.28;34.77
49529;BME280;35423;37.320;-121.762;2022-09-29T09:50:22;100169.10;;;22.20;34.76
49529;BME280;35423;37.320;-121.762;2022-09-29T09:52:50;100170.71;;;22.15;34.70
49529;BME280;35423;37.320;-121.762;2022-09-29T09:55:16;100168.75;;;22.12;34.73
49529;BME280;35423;37.320;-121.762;2022-09-29T09:57:50;100167.98;;;22.37;34.55
49529;BME280;35423;37.320;-121.762;2022-09-29T10:00:11;100164.90;;;22.41;34.84
49529;BME280;35423;37.320;-121.762;2022-09-29T10:02:41;100164.38;;;21.94;34.80
49529;BME280;35423;37.320;-121.762;2022-09-29T10:05:03;100159.93;;;21.93;35.09
49529;BME280;35423;37.320;-121.762;2022-09-29T10:07:30;100160.29;;;21.47;35.07
49529;BME280;35423;37.320;-121.762;2022-09-29T10:10:02;100160.18;;;22.17;35.10
49529;BME280;35423;37.320;-121.762;2022-09-29T10:12:28;100162.67;;;21.43;35.05
49529;BME280;35423;37.320;-121.762;2022-09-29T10:15:00;100164.83;;;21.73;35.21
49529;BME280;35423;37.320;-121.762;2022-09-29T10:17:22;100166.42;;;21.58;35.29
49529;BME280;35423;37.320;-121.762;2022-09-29T10:19:53;100163.29;;;21.51;35.33
49529;BME280;35423;37.320;-121.762;2022-09-29T10:22:13;100166.21;;;22.08;35.34
49529;BME280;35423;37.320;-121.762;2022-09-29T10:24:38;100163.78;;;21.54;35.43
49529;BME280;35423;37.320;-121.762;2022-09-29T10:27:04;100163.19;;;21.83;35.44
49529;BME280;35423;37.320;-121.762;2022-09-29T10:29:35;100158.30;;;22.10;35.42
49529;BME280;35423;37.320;-121.762;2022-09-29T10:32:03;100158.93;;;21.67;35.66
49529;BME280;35423;37.320;-121.762;2022-09-29T10:34:23;100160.05;;;21.87;35.71
49529;BME280;35423;37.320;-121.762;2022-09-29T10:36:51;100160.65;;;21.55;35.77
49529;BME280;35423;37.320;-121.762;2022-09-29T10:44:19;100161.82;;;21.73;35.98
49529;BME280;35423;37.320;-121.762;2022-09-29T10:46:37;100160.68;;;20.74;36.09
49529;BME280;35423;37.320;-121.762;2022-09-29T10:51:24;100157.62;;;21.39;36.13
49529;BME280;35423;37.320;-121.762;2022-09-29T10:53:49;100156.36;;;21.75;35.99
49529;BME280;35423;37.320;-121.762;2022-09-29T10:56:17;100156.90;;;21.51;36.42
49529;BME280;35423;37.320;-121.762;2022-09-29T10:58:51;100153.01;;;21.08;36.76
49529;BME280;35423;37.320;-121.762;2022-09-29T11:01:16;100152.46;;;21.60;36.93
49529;BME280;35423;37.320;-121.762;2022-09-29T11:03:47;100150.87;;;20.99;37.06
49529;BME280;35423;37.320;-121.762;2022-09-29T11:06:12;100147.41;;;21.41;37.12
49529;BME280;35423;37.320;-121.762;2022-09-29T11:11:06;100149.12;;;21.01;37.09
49529;BME280;35423;37.320;-121.762;2022-09-29T11:13:36;100150.42;;;20.84;36.90
49529;BME280;35423;37.320;-121.762;2022-09-29T11:16:03;100149.86;;;21.32;36.85
49529;BME280;35423;37.320;-121.762;2022-09-29T11:18:31;100146.53;;;21.47;36.81
49529;BME280;35423;37.320;-121.762;2022-09-29T11:21:00;100147.44;;;20.89;36.89
49529;BME280;35423;37.320;-121.762;2022-09-29T11:23:28;100146.56;;;21.20;37.09
49529;BME280;35423;37.320;-121.762;2022-09-29T11:28:31;100143.25;;;21.04;37.11
49529;BME280;35423;37.320;-121.762;2022-09-29T11:30:57;100141.03;;;21.24;36.97
49529;BME280;35423;37.320;-121.762;2022-09-29T11:33:22;100140.48;;;20.99;37.35
49529;BME280;35423;37.320;-121.762;2022-09-29T11:35:47;100142.53;;;20.80;37.60
49529;BME280;35423;37.320;-121.762;2022-09-29T11:38:23;100143.26;;;20.91;37.78
49529;BME280;35423;37.320;-121.762;2022-09-29T11:40:40;100143.60;;;20.23;37.65
49529;BME280;35423;37.320;-121.762;2022-09-29T11:43:15;100146.39;;;20.94;37.60
49529;BME280;35423;37.320;-121.762;2022-09-29T11:45:32;100145.29;;;20.18;37.61
49529;BME280;35423;37.320;-121.762;2022-09-29T11:50:30;100148.53;;;21.20;37.44
49529;BME280;35423;37.320;-121.762;2022-09-29T11:53:04;100147.67;;;20.71;37.27
49529;BME280;35423;37.320;-121.762;2022-09-29T11:55:29;100146.71;;;21.24;37.07
49529;BME280;35423;37.320;-121.762;2022-09-29T11:57:49;100147.76;;;20.39;37.50
49529;BME280;35423;37.320;-121.762;2022-09-29T12:00:11;100146.70;;;20.76;37.59
49529;BME280;35423;37.320;-121.762;2022-09-29T12:05:06;100141.57;;;20.45;37.80
49529;BME280;35423;37.320;-121.762;2022-09-29T12:07:36;100139.59;;;20.28;37.66
49529;BME280;35423;37.320;-121.762;2022-09-29T12:10:04;100142.62;;;20.62;37.82
49529;BME280;35423;37.320;-121.762;2022-09-29T12:12:21;100138.03;;;20.47;38.04
49529;BME280;35423;37.320;-121.762;2022-09-29T12:14:59;100137.41;;;20.13;38.14
49529;BME280;35423;37.320;-121.762;2022-09-29T12:17:14;100139.21;;;20.47;38.16
49529;BME280;35423;37.320;-121.762;2022-09-29T12:19:38;100139.27;;;19.63;38.21
49529;BME280;35423;37.320;-121.762;2022-09-29T12:22:09;100137.17;;;20.66;38.05
49529;BME280;35423;37.320;-121.762;2022-09-29T12:24:35;100140.66;;;19.90;38.05
49529;BME280;35423;37.320;-121.762;2022-09-29T12:26:58;100138.65;;;20.53;38.07
49529;BME280;35423;37.320;-121.762;2022-09-29T12:29:33;100139.93;;;20.28;38.40
49529;BME280;35423;37.320;-121.762;2022-09-29T12:31:56;100139.25;;;19.75;38.74
49529;BME280;35423;37.320;-121.762;2022-09-29T12:34:24;100145.07;;;19.99;38.76
49529;BME280;35423;37.320;-121.762;2022-09-29T12:36:48;100147.26;;;19.64;38.79
49529;BME280;35423;37.320;-121.762;2022-09-29T12:39:30;100146.87;;;19.94;38.79
49529;BME280;35423;37.320;-121.762;2022-09-29T12:41:50;100148.40;;;19.64;38.90
49529;BME280;35423;37.320;-121.762;2022-09-29T12:44:17;100149.01;;;19.89;39.05